TimeEST,TemperatureF,Dew PointF,Humidity,Sea Level PressureIn,VisibilityMPH,Wind Direction,Wind SpeedMPH,Gust SpeedMPH,PrecipitationIn,Events,Conditions,WindDirDegrees,DateUTC
12:56 AM,36.0,34.0,93,30.01,5.0,Calm,Calm,-,N/A,,Mostly Cloudy,0,2013-12-02 05:56:00
1:56 AM,36.0,34.0,93,30.01,4.0,Calm,Calm,-,N/A,,Overcast,0,2013-12-02 06:56:00
2:56 AM,36.0,34.0,93,30.00,4.0,Calm,Calm,-,N/A,,Mostly Cloudy,0,2013-12-02 07:56:00
3:56 AM,37.0,35.1,93,29.99,3.0,North,3.5,-,N/A,,Clear,360,2013-12-02 08:56:00
4:56 AM,37.0,35.1,93,29.99,3.0,Calm,Calm,-,N/A,,Clear,0,2013-12-02 09:56:00
5:56 AM,37.9,36.0,93,30.00,5.0,North,3.5,-,N/A,,Partly Cloudy,10,2013-12-02 10:56:00
6:28 AM,36.0,34.0,93,29.99,2.5,SE,3.5,-,N/A,,Partly Cloudy,130,2013-12-02 11:28:00
6:54 AM,33.8,33.8,100,29.98,1.8,Calm,Calm,-,N/A,,Clear,0,2013-12-02 11:54:00
6:56 AM,34.0,33.1,96,29.99,1.8,Calm,Calm,-,N/A,,Clear,0,2013-12-02 11:56:00
7:10 AM,33.1,32.0,96,29.98,0.8,Calm,Calm,-,N/A,,Clear,0,2013-12-02 12:10:00
7:16 AM,32.0,32.0,100,29.98,1.0,Calm,Calm,-,N/A,,Mist,0,2013-12-02 12:16:00
7:30 AM,33.1,32.0,96,29.98,1.0,East,3.5,-,N/A,,Clear,90,2013-12-02 12:30:00
7:34 AM,33.1,32.0,96,29.98,1.0,East,4.6,-,N/A,,Mist,90,2013-12-02 12:34:00
7:40 AM,35.1,33.1,92,29.98,0.8,Calm,Calm,-,N/A,,Scattered Clouds,0,2013-12-02 12:40:00
7:53 AM,33.8,33.8,100,29.98,1.2,NW,3.5,-,N/A,,Mostly Cloudy,320,2013-12-02 12:53:00
7:56 AM,35.1,34.0,96,29.99,1.2,Calm,Calm,-,N/A,,Mostly Cloudy,0,2013-12-02 12:56:00
8:31 AM,37.0,35.1,93,29.99,1.5,NNW,4.6,-,N/A,,Overcast,340,2013-12-02 13:31:00
8:46 AM,37.0,36.0,96,29.99,2.5,North,3.5,-,N/A,,Overcast,350,2013-12-02 13:46:00
8:56 AM,37.0,36.0,96,30.00,3.0,Calm,Calm,-,N/A,,Overcast,0,2013-12-02 13:56:00
9:06 AM,37.9,37.0,97,29.99,4.0,North,3.5,-,N/A,,Overcast,360,2013-12-02 14:06:00
9:56 AM,39.9,37.9,93,29.99,6.0,North,3.5,-,N/A,,Overcast,10,2013-12-02 14:56:00
10:14 AM,41.0,39.0,93,30.00,7.0,North,3.5,-,N/A,,Overcast,10,2013-12-02 15:14:00
10:27 AM,41.0,39.9,96,29.99,6.0,Calm,Calm,-,N/A,,Overcast,0,2013-12-02 15:27:00
10:52 AM,42.8,39.2,87,29.98,6.0,NNE,3.5,-,N/A,,Overcast,30,2013-12-02 15:52:00
10:56 AM,42.1,39.9,92,29.98,6.0,Calm,Calm,-,N/A,,Overcast,0,2013-12-02 15:56:00
11:56 AM,44.1,39.9,85,29.96,10.0,North,3.5,-,N/A,,Overcast,350,2013-12-02 16:56:00
12:56 PM,46.0,39.9,79,29.94,10.0,NNW,5.8,-,N/A,,Overcast,330,2013-12-02 17:56:00
1:56 PM,48.9,39.9,71,29.92,10.0,North,3.5,-,N/A,,Mostly Cloudy,350,2013-12-02 18:56:00
2:56 PM,46.9,39.0,74,29.92,10.0,Variable,3.5,-,N/A,,Clear,0,2013-12-02 19:56:00
3:56 PM,44.1,37.9,79,29.93,10.0,Calm,Calm,-,N/A,,Clear,0,2013-12-02 20:56:00
4:56 PM,39.9,37.0,89,29.92,9.0,North,3.5,-,N/A,,Clear,10,2013-12-02 21:56:00
5:56 PM,37.9,36.0,93,29.93,6.0,Calm,Calm,-,N/A,,Clear,0,2013-12-02 22:56:00
6:56 PM,37.0,35.1,93,29.93,5.0,Calm,Calm,-,N/A,,Clear,0,2013-12-02 23:56:00
7:56 PM,35.1,34.0,96,29.94,3.0,Calm,Calm,-,N/A,,Clear,0,2013-12-03 00:56:00
8:16 PM,35.1,33.1,92,29.94,2.5,Calm,Calm,-,N/A,,Clear,0,2013-12-03 01:16:00
8:32 PM,34.0,33.1,96,29.93,3.0,Calm,Calm,-,N/A,,Clear,0,2013-12-03 01:32:00
8:56 PM,33.1,33.1,100,29.94,3.0,Calm,Calm,-,N/A,,Clear,0,2013-12-03 01:56:00
9:04 PM,33.1,33.1,100,29.94,2.5,Calm,Calm,-,N/A,,Clear,0,2013-12-03 02:04:00
9:44 PM,34.0,32.0,92,29.93,3.0,Calm,Calm,-,N/A,,Clear,0,2013-12-03 02:44:00
9:56 PM,33.1,33.1,100,29.93,3.0,Calm,Calm,-,N/A,,Clear,0,2013-12-03 02:56:00
10:56 PM,33.1,32.0,96,29.92,4.0,Calm,Calm,-,N/A,,Clear,0,2013-12-03 03:56:00
11:56 PM,36.0,34.0,93,29.90,4.0,NNE,3.5,-,N/A,,Clear,20,2013-12-03 04:56:00